Time;durP1;ratioP1;P1;durP2;ratioP2;P2;SDS_P1;SDS_P2;PMS_P1;PMS_P2;Temp;Humidity;BMP_temperature;BMP_pressure;BME280_temperature;BME280_humidity;BME280_pressure;Samples;Min_cycle;Max_cycle;Signal;HPM_P1;HPM_P2
2021/01/25 00:00:20;;;;;;;20.13;9.97;;;2.40;85.20;;;;;;4918734;29;20028;-73
2021/01/25 00:02:46;;;;;;;20.07;10.33;;;2.40;85.20;;;;;;4939426;29;20325;-73
2021/01/25 00:05:12;;;;;;;23.40;10.20;;;2.40;85.30;;;;;;4922439;29;20028;-75
2021/01/25 00:07:39;;;;;;;21.23;9.97;;;2.40;85.30;;;;;;4938325;29;20043;-75
2021/01/25 00:10:06;;;;;;;17.90;9.87;;;2.40;85.40;;;;;;4958881;29;20039;-72
2021/01/25 00:12:31;;;;;;;20.07;9.63;;;2.40;85.50;;;;;;4941169;29;20086;-75
2021/01/25 00:14:57;;;;;;;17.50;9.33;;;2.40;85.50;;;;;;4941487;29;20035;-75
2021/01/25 00:17:22;;;;;;;18.77;9.13;;;2.40;85.60;;;;;;4941709;29;20440;-77
2021/01/25 00:19:48;;;;;;;18.67;9.10;;;2.40;85.60;;;;;;4925738;29;20035;-79
2021/01/25 00:22:14;;;;;;;16.20;8.83;;;2.40;85.50;;;;;;4939109;29;20531;-77
2021/01/25 00:24:39;;;;;;;18.10;10.03;;;2.40;85.50;;;;;;4930947;29;20487;-78
2021/01/25 00:27:05;;;;;;;16.30;8.60;;;2.50;85.50;;;;;;4922254;29;20036;-77
2021/01/25 00:29:31;;;;;;;18.50;8.57;;;2.50;85.80;;;;;;4938663;29;20036;-77
2021/01/25 00:31:58;;;;;;;19.67;9.73;;;2.40;85.50;;;;;;4939087;29;20083;-77
2021/01/25 00:34:24;;;;;;;16.43;8.97;;;2.40;85.60;;;;;;4938405;29;20440;-77
2021/01/25 00:36:50;;;;;;;15.70;8.93;;;2.50;85.60;;;;;;4923823;29;20496;-77
2021/01/25 00:39:16;;;;;;;16.47;8.67;;;2.50;85.70;;;;;;4939606;29;20124;-77
2021/01/25 00:41:41;;;;;;;17.43;8.70;;;2.50;85.70;;;;;;4921883;29;20126;-77
2021/01/25 00:44:07;;;;;;;18.47;9.10;;;2.50;85.70;;;;;;4938908;29;20043;-78
2021/01/25 00:46:32;;;;;;;16.43;8.37;;;2.50;85.70;;;;;;4937598;29;20452;-78
2021/01/25 00:48:58;;;;;;;17.10;8.67;;;2.50;85.70;;;;;;4937273;29;20139;-78
2021/01/25 00:51:23;;;;;;;16.53;8.70;;;2.50;85.70;;;;;;4937404;29;20032;-77
2021/01/25 00:53:49;;;;;;;18.70;9.57;;;2.50;85.70;;;;;;4921688;29;20036;-73
2021/01/25 00:56:15;;;;;;;16.10;8.53;;;2.60;85.90;;;;;;4937454;29;20028;-73
2021/01/25 00:58:40;;;;;;;15.90;8.30;;;2.50;85.70;;;;;;4938496;29;20039;-74
2021/01/25 01:01:07;;;;;;;18.20;8.80;;;2.60;85.80;;;;;;4936544;29;20024;-73
2021/01/25 01:03:32;;;;;;;16.30;8.13;;;2.60;85.80;;;;;;4938555;29;20062;-73
2021/01/25 01:05:58;;;;;;;16.53;8.93;;;2.60;85.70;;;;;;4941134;29;20031;-73
2021/01/25 01:08:24;;;;;;;17.13;9.93;;;2.60;85.80;;;;;;4939834;29;20028;-73
2021/01/25 01:10:50;;;;;;;14.67;8.83;;;2.60;85.90;;;;;;4940621;29;20086;-73
2021/01/25 01:13:16;;;;;;;16.80;8.50;;;2.60;86.00;;;;;;4956886;28;20047;-73
2021/01/25 01:15:41;;;;;;;17.70;9.17;;;2.60;86.00;;;;;;4957481;29;20033;-73
2021/01/25 01:18:07;;;;;;;19.07;9.33;;;2.60;86.00;;;;;;4940253;29;20062;-73
2021/01/25 01:20:32;;;;;;;18.67;10.43;;;2.60;86.00;;;;;;4940396;29;20134;-73
2021/01/25 01:22:58;;;;;;;18.07;10.93;;;2.70;86.10;;;;;;4909151;29;20042;-73
2021/01/25 01:25:24;;;;;;;19.27;10.73;;;2.60;86.00;;;;;;4940230;29;20055;-73
2021/01/25 01:27:49;;;;;;;21.10;10.97;;;2.60;86.10;;;;;;4940228;29;20478;-73
2021/01/25 01:30:16;;;;;;;20.23;10.40;;;2.60;86.00;;;;;;4940150;29;20039;-73
2021/01/25 01:32:41;;;;;;;23.27;12.20;;;2.70;86.00;;;;;;4957492;29;20114;-74
2021/01/25 01:35:08;;;;;;;23.87;11.33;;;2.60;86.10;;;;;;4940031;29;20114;-74
2021/01/25 01:37:34;;;;;;;22.00;11.10;;;2.60;86.10;;;;;;4957150;29;20122;-73
2021/01/25 01:40:04;;;;;;;20.07;10.70;;;2.60;86.10;;;;;;4924293;29;20035;-73
2021/01/25 01:42:30;;;;;;;23.20;12.13;;;2.60;86.10;;;;;;4957173;29;20047;-73
2021/01/25 01:44:56;;;;;;;21.93;12.00;;;2.60;86.20;;;;;;4924107;29;20126;-74
2021/01/25 01:47:21;;;;;;;22.10;12.10;;;2.60;86.40;;;;;;4957073;29;20027;-73
2021/01/25 01:49:50;;;;;;;23.70;13.67;;;2.60;86.30;;;;;;4957044;29;20055;-73
2021/01/25 01:52:16;;;;;;;26.77;14.70;;;2.60;86.30;;;;;;4957063;29;20455;-73
2021/01/25 01:54:41;;;;;;;27.87;14.13;;;2.60;86.30;;;;;;4956842;29;20030;-73
2021/01/25 01:57:08;;;;;;;27.27;13.33;;;2.60;86.30;;;;;;4956925;29;20391;-73
2021/01/25 01:59:33;;;;;;;25.37;14.53;;;2.60;86.40;;;;;;4939676;29;20438;-73
2021/01/25 02:01:59;;;;;;;25.23;14.07;;;2.60;86.50;;;;;;4956878;29;20031;-73
2021/01/25 02:04:26;;;;;;;27.50;14.63;;;2.60;86.50;;;;;;4939663;29;20114;-73
2021/01/25 02:06:54;;;;;;;23.03;13.53;;;2.60;86.60;;;;;;4940126;29;20027;-77
2021/01/25 02:09:20;;;;;;;26.67;14.60;;;2.60;86.70;;;;;;4956729;29;20032;-78
2021/01/25 02:11:45;;;;;;;28.10;15.13;;;2.60;86.70;;;;;;4939529;29;20031;-77
2021/01/25 02:14:12;;;;;;;27.93;14.87;;;2.60;86.70;;;;;;4923558;29;20031;-78
2021/01/25 02:16:42;;;;;;;27.20;15.50;;;2.60;86.80;;;;;;4939316;29;20436;-78
2021/01/25 02:19:42;;;;;;;25.30;14.57;;;2.70;87.00;;;;;;4939369;29;20071;-78
2021/01/25 02:22:26;;;;;;;23.40;14.07;;;2.70;86.90;;;;;;4955780;29;20113;-78
2021/01/25 02:25:01;;;;;;;25.88;14.73;;;2.70;86.80;;;;;;4934453;29;20040;-78
2021/01/25 02:27:32;;;;;;;24.47;14.73;;;2.70;86.90;;;;;;4956024;29;20162;-78
2021/01/25 02:29:59;;;;;;;27.17;14.73;;;2.70;86.80;;;;;;4938495;29;20027;-78
2021/01/25 02:32:26;;;;;;;27.17;15.27;;;2.70;86.90;;;;;;4956028;29;20027;-78
2021/01/25 02:34:54;;;;;;;27.53;14.80;;;2.70;86.80;;;;;;4956050;29;20023;-78
2021/01/25 02:37:20;;;;;;;30.57;17.77;;;2.70;87.00;;;;;;4955883;29;20023;-78
2021/01/25 02:39:47;;;;;;;26.23;15.83;;;2.70;87.00;;;;;;4956058;29;20110;-78
2021/01/25 02:42:14;;;;;;;24.20;14.63;;;2.70;86.70;;;;;;4955938;29;20023;-78
2021/01/25 02:44:40;;;;;;;28.00;15.00;;;2.70;86.80;;;;;;4938779;29;20106;-78
2021/01/25 02:47:12;;;;;;;22.70;15.07;;;2.70;86.90;;;;;;5111168;27;20874;-78
2021/01/25 02:49:40;;;;;;;27.83;15.17;;;2.70;87.00;;;;;;5109694;28;20032;-78
2021/01/25 02:52:05;;;;;;;26.30;13.80;;;2.60;87.10;;;;;;5109726;28;20110;-78
2021/01/25 02:54:31;;;;;;;25.57;14.27;;;2.70;87.80;;;;;;5109772;28;20438;-78
2021/01/25 02:56:57;;;;;;;26.87;14.87;;;2.60;87.30;;;;;;5092625;28;20387;-78
2021/01/25 02:59:24;;;;;;;24.70;14.67;;;2.70;87.60;;;;;;5110873;28;20028;-78
2021/01/25 03:01:50;;;;;;;29.00;14.20;;;2.70;87.30;;;;;;5092569;28;20027;-78
2021/01/25 03:04:16;;;;;;;26.43;14.53;;;2.60;87.20;;;;;;5110745;28;20099;-78
2021/01/25 03:06:43;;;;;;;25.10;13.63;;;2.60;87.10;;;;;;5109309;28;20032;-78
2021/01/25 03:09:09;;;;;;;25.33;14.40;;;2.60;87.20;;;;;;5110651;28;20474;-78
2021/01/25 03:11:37;;;;;;;24.93;14.30;;;2.60;87.20;;;;;;5109132;28;20020;-78
2021/01/25 03:14:10;;;;;;;28.93;14.60;;;2.60;87.30;;;;;;5109145;28;20018;-78
2021/01/25 03:16:36;;;;;;;26.73;14.73;;;2.50;87.30;;;;;;5110409;28;20032;-78
2021/01/25 03:19:03;;;;;;;24.93;14.60;;;2.60;87.50;;;;;;5110429;28;20042;-78
2021/01/25 03:21:28;;;;;;;31.30;14.70;;;2.60;87.40;;;;;;5092171;28;20491;-78
2021/01/25 03:23:54;;;;;;;29.50;15.17;;;2.50;87.30;;;;;;5110187;28;20050;-78
2021/01/25 03:26:20;;;;;;;24.37;14.57;;;2.50;87.30;;;;;;5105071;28;20028;-78
2021/01/25 03:28:45;;;;;;;22.63;13.90;;;2.50;87.40;;;;;;5087978;28;20029;-78
2021/01/25 03:31:11;;;;;;;27.30;13.97;;;2.50;87.30;;;;;;5087502;28;20115;-78
2021/01/25 03:33:37;;;;;;;23.23;13.60;;;2.50;87.30;;;;;;5088046;28;20034;-78
2021/01/25 03:36:02;;;;;;;22.33;12.23;;;2.50;87.50;;;;;;5088573;28;20036;-78
2021/01/25 03:38:28;;;;;;;25.50;14.67;;;2.50;87.70;;;;;;5089455;28;20077;-78
2021/01/25 03:40:54;;;;;;;24.57;14.50;;;2.50;87.80;;;;;;5086071;28;20032;-78
2021/01/25 03:43:19;;;;;;;31.03;16.07;;;2.50;87.50;;;;;;5087455;28;20040;-78
2021/01/25 03:45:45;;;;;;;27.53;16.13;;;2.50;87.40;;;;;;5068919;28;20494;-78
2021/01/25 03:48:10;;;;;;;30.13;16.83;;;2.40;87.20;;;;;;5086115;28;20073;-78
2021/01/25 03:50:36;;;;;;;30.60;17.83;;;2.40;87.20;;;;;;5087608;28;20047;-78
2021/01/25 03:53:02;;;;;;;31.77;17.50;;;2.30;87.20;;;;;;5086385;28;20036;-78
2021/01/25 03:55:28;;;;;;;32.43;17.30;;;2.30;87.20;;;;;;5088884;28;20357;-78
2021/01/25 03:57:55;;;;;;;31.83;17.10;;;2.30;87.20;;;;;;5078099;28;20119;-78
2021/01/25 04:00:21;;;;;;;29.93;17.40;;;2.30;87.20;;;;;;5074482;28;20029;-78
2021/01/25 04:02:46;;;;;;;31.27;16.80;;;2.20;87.30;;;;;;5075591;28;20379;-74
2021/01/25 04:05:12;;;;;;;29.07;16.97;;;2.20;87.20;;;;;;5075365;28;20032;-74
2021/01/25 04:07:39;;;;;;;32.40;17.73;;;2.20;87.30;;;;;;5074402;28;20044;-74
2021/01/25 04:10:06;;;;;;;31.37;16.67;;;2.20;87.30;;;;;;5075565;28;20029;-74
2021/01/25 04:12:31;;;;;;;30.13;16.43;;;2.20;87.30;;;;;;5075562;28;20025;-73
2021/01/25 04:14:57;;;;;;;27.93;15.77;;;2.20;87.60;;;;;;5074499;28;20033;-73
2021/01/25 04:17:23;;;;;;;26.63;15.40;;;2.10;87.60;;;;;;5057638;28;20038;-74
2021/01/25 04:19:49;;;;;;;29.63;16.17;;;2.10;87.60;;;;;;5075326;28;20514;-74
2021/01/25 04:22:15;;;;;;;28.73;15.70;;;2.10;87.50;;;;;;5057522;28;20033;-74
2021/01/25 04:24:41;;;;;;;27.93;15.47;;;2.10;87.60;;;;;;5057587;28;20073;-74
2021/01/25 04:27:11;;;;;;;22.73;14.20;;;2.10;87.70;;;;;;5075456;28;20032;-74
2021/01/25 04:29:37;;;;;;;27.73;15.73;;;2.10;87.70;;;;;;5073943;28;20357;-74
2021/01/25 04:32:03;;;;;;;28.30;15.10;;;2.10;87.60;;;;;;5075086;28;20115;-74
2021/01/25 04:34:29;;;;;;;25.93;15.80;;;2.10;87.50;;;;;;5074054;28;20110;-74
2021/01/25 04:36:54;;;;;;;25.37;14.50;;;2.10;87.30;;;;;;5075025;28;20055;-74
2021/01/25 04:39:20;;;;;;;24.63;15.30;;;2.00;87.10;;;;;;5073753;28;20032;-74
2021/01/25 04:41:46;;;;;;;25.50;13.93;;;2.00;87.10;;;;;;5074109;28;20038;-74
2021/01/25 04:44:14;;;;;;;28.73;14.97;;;2.00;87.20;;;;;;5075027;28;20029;-74
2021/01/25 04:46:39;;;;;;;27.90;15.77;;;1.90;87.30;;;;;;5074599;28;20044;-74
2021/01/25 04:49:06;;;;;;;25.90;14.13;;;1.90;87.40;;;;;;5074756;28;20123;-74
2021/01/25 04:51:32;;;;;;;26.53;15.80;;;1.80;87.30;;;;;;5074797;28;20025;-74
2021/01/25 04:53:59;;;;;;;28.33;15.37;;;1.80;87.40;;;;;;5073584;28;20029;-74
2021/01/25 04:56:25;;;;;;;27.13;14.37;;;1.80;87.40;;;;;;5056899;28;20111;-74
2021/01/25 04:58:53;;;;;;;27.97;15.93;;;1.80;87.40;;;;;;5073295;28;20478;-74
2021/01/25 05:01:18;;;;;;;30.90;16.17;;;1.70;88.10;;;;;;5082455;28;20040;-74
2021/01/25 05:03:44;;;;;;;26.10;15.57;;;1.70;87.50;;;;;;5092159;28;20043;-74
2021/01/25 05:06:10;;;;;;;26.57;14.87;;;1.60;87.30;;;;;;5093590;28;20028;-74
2021/01/25 05:08:36;;;;;;;25.33;14.63;;;1.60;87.30;;;;;;5093633;28;20032;-74
2021/01/25 05:11:31;;;;;;;25.67;14.70;;;1.60;88.00;;;;;;5093169;28;20361;-74
2021/01/25 05:14:04;;;;;;;26.00;14.63;;;1.60;87.40;;;;;;5089777;28;20085;-74
2021/01/25 05:16:31;;;;;;;26.50;15.15;;;1.50;87.50;;;;;;5092188;28;20125;-74
2021/01/25 05:18:59;;;;;;;26.00;14.93;;;1.40;87.60;;;;;;5093020;28;20119;-74
2021/01/25 05:21:34;;;;;;;29.43;15.70;;;1.40;87.70;;;;;;5093084;28;20376;-74
2021/01/25 05:24:05;;;;;;;29.53;16.83;;;1.40;87.70;;;;;;5094082;28;20103;-74
2021/01/25 05:26:31;;;;;;;26.80;14.90;;;1.30;87.60;;;;;;5094097;28;20024;-74
2021/01/25 05:28:57;;;;;;;30.27;14.83;;;1.40;87.60;;;;;;5094289;28;20027;-74
2021/01/25 05:31:24;;;;;;;28.10;15.53;;;1.30;87.60;;;;;;5094185;28;20024;-74
2021/01/25 05:33:51;;;;;;;26.03;14.63;;;1.20;87.70;;;;;;5075933;28;20123;-74
2021/01/25 05:36:20;;;;;;;30.97;15.83;;;1.20;87.70;;;;;;5092899;28;20502;-74
2021/01/25 05:38:50;;;;;;;31.73;16.33;;;1.20;87.80;;;;;;5094004;28;20028;-74
2021/01/25 05:41:16;;;;;;;28.27;15.50;;;1.10;87.90;;;;;;5094262;28;20032;-74
2021/01/25 05:43:42;;;;;;;28.20;16.50;;;1.10;87.90;;;;;;5093873;28;20107;-74
2021/01/25 05:46:16;;;;;;;29.93;15.40;;;1.10;88.10;;;;;;5092275;28;20174;-74
2021/01/25 05:48:42;;;;;;;39.08;18.60;;;1.00;88.20;;;;;;5092628;28;20017;-74
2021/01/25 05:51:15;;;;;;;30.83;18.10;;;1.00;88.30;;;;;;5093947;28;20100;-74
2021/01/25 05:53:42;;;;;;;28.93;16.83;;;1.00;88.40;;;;;;5092679;28;20026;-73
2021/01/25 05:56:11;;;;;;;32.83;17.70;;;1.00;88.40;;;;;;5093681;28;20547;-73
2021/01/25 05:58:38;;;;;;;32.57;18.60;;;1.00;88.70;;;;;;5076175;28;20036;-74
2021/01/25 06:01:04;;;;;;;33.53;17.67;;;1.00;89.20;;;;;;5093569;28;20464;-74
2021/01/25 06:03:37;;;;;;;32.47;17.67;;;0.90;88.60;;;;;;5093778;28;20435;-74
2021/01/25 06:06:12;;;;;;;31.70;17.90;;;0.90;88.70;;;;;;5092409;28;20028;-74
2021/01/25 06:08:53;;;;;;;32.57;18.37;;;0.90;88.80;;;;;;5093590;28;20030;-74
2021/01/25 06:11:31;;;;;;;32.87;17.87;;;0.90;88.70;;;;;;5092356;28;20375;-74
2021/01/25 06:14:21;;;;;;;30.53;17.07;;;0.90;88.70;;;;;;5092318;28;20028;-73
2021/01/25 06:16:50;;;;;;;31.73;17.90;;;0.90;88.80;;;;;;5089071;28;20471;-74
2021/01/25 06:19:19;;;;;;;30.97;18.33;;;0.90;88.80;;;;;;5093644;28;20317;-74
2021/01/25 06:21:47;;;;;;;32.27;18.97;;;0.80;88.80;;;;;;5093104;28;20039;-74
2021/01/25 06:24:13;;;;;;;30.23;18.23;;;0.90;89.60;;;;;;5075191;28;20028;-74
2021/01/25 06:26:39;;;;;;;35.03;18.77;;;0.90;89.10;;;;;;5080304;28;20028;-75
2021/01/25 06:29:07;;;;;;;33.37;18.40;;;0.80;89.10;;;;;;5057489;28;20035;-74
2021/01/25 06:31:38;;;;;;;32.30;18.70;;;0.80;89.10;;;;;;5089610;28;20024;-74
2021/01/25 06:34:15;;;;;;;35.50;19.57;;;0.80;89.20;;;;;;5085441;28;20024;-74
2021/01/25 06:36:42;;;;;;;32.73;18.93;;;0.70;89.10;;;;;;5072005;28;20024;-74
2021/01/25 06:39:08;;;;;;;33.87;18.07;;;0.70;89.10;;;;;;5079484;28;20424;-74
2021/01/25 06:41:42;;;;;;;36.00;20.30;;;0.70;89.20;;;;;;5084805;28;20437;-74
2021/01/25 06:44:09;;;;;;;36.40;18.02;;;0.70;89.30;;;;;;5086488;28;20054;-74
2021/01/25 06:46:36;;;;;;;31.80;17.97;;;0.70;89.40;;;;;;5084619;28;20040;-74
2021/01/25 06:49:06;;;;;;;32.53;18.83;;;0.70;89.40;;;;;;5083379;28;20406;-74
2021/01/25 06:51:31;;;;;;;33.40;18.80;;;0.60;89.30;;;;;;5078293;28;20037;-74
2021/01/25 06:54:01;;;;;;;33.70;19.40;;;0.60;89.30;;;;;;5074384;28;20043;-74
2021/01/25 06:56:41;;;;;;;33.90;18.13;;;0.60;89.30;;;;;;5075012;28;20032;-74
2021/01/25 06:59:09;;;;;;;31.60;17.83;;;0.60;89.40;;;;;;5090883;28;20101;-74
2021/01/25 07:01:35;;;;;;;32.93;17.40;;;0.50;89.40;;;;;;5080051;28;20480;-74
2021/01/25 07:04:01;;;;;;;36.83;19.13;;;0.50;89.40;;;;;;5071830;28;20044;-74
2021/01/25 07:06:41;;;;;;;35.43;19.03;;;0.50;89.50;;;;;;5072019;28;20047;-75
2021/01/25 07:09:07;;;;;;;31.57;18.33;;;0.50;89.60;;;;;;5071671;28;20035;-74
2021/01/25 07:11:35;;;;;;;35.70;18.83;;;0.40;89.60;;;;;;5055949;28;20365;-74
2021/01/25 07:14:01;;;;;;;33.90;19.00;;;0.40;89.70;;;;;;5091073;28;20282;-74
2021/01/25 07:16:28;;;;;;;38.13;19.50;;;0.50;89.80;;;;;;5071603;28;20036;-74
2021/01/25 07:18:54;;;;;;;36.53;18.37;;;0.40;90.10;;;;;;5082538;28;20058;-74
2021/01/25 07:21:21;;;;;;;34.57;20.23;;;0.40;89.90;;;;;;5075037;28;20029;-74
2021/01/25 07:23:49;;;;;;;38.57;20.50;;;0.40;90.10;;;;;;5092093;28;20533;-74
2021/01/25 07:26:16;;;;;;;36.27;19.67;;;0.40;90.00;;;;;;5090764;28;20286;-74
2021/01/25 07:28:43;;;;;;;34.20;19.83;;;0.40;90.00;;;;;;5091861;28;20121;-74
2021/01/25 07:31:10;;;;;;;35.30;21.20;;;0.50;90.00;;;;;;5074937;28;20752;-74
2021/01/25 07:33:36;;;;;;;38.00;20.20;;;0.40;90.00;;;;;;5095335;28;20036;-74
2021/01/25 07:36:03;;;;;;;34.63;20.63;;;0.40;90.00;;;;;;5095909;28;20040;-74
2021/01/25 07:38:29;;;;;;;39.43;20.40;;;0.40;90.00;;;;;;5095232;28;20652;-74
2021/01/25 07:40:59;;;;;;;34.87;18.73;;;0.40;90.20;;;;;;5095381;28;20092;-73
2021/01/25 07:43:27;;;;;;;32.73;18.43;;;0.40;90.00;;;;;;5086968;28;20052;-74
2021/01/25 07:45:54;;;;;;;33.87;20.27;;;0.40;90.00;;;;;;5075861;28;20484;-74
2021/01/25 07:48:20;;;;;;;36.37;18.90;;;0.40;90.00;;;;;;5058493;28;20170;-74
2021/01/25 07:50:58;;;;;;;36.07;19.10;;;0.40;90.10;;;;;;5088822;28;20028;-73
2021/01/25 07:53:24;;;;;;;34.73;18.43;;;0.40;90.10;;;;;;5094572;28;20027;-74
2021/01/25 07:55:50;;;;;;;35.87;19.80;;;0.40;90.20;;;;;;5074341;28;20032;-75
2021/01/25 07:58:16;;;;;;;37.03;19.83;;;0.40;90.20;;;;;;5075779;28;20281;-75
2021/01/25 08:00:42;;;;;;;32.63;18.20;;;0.40;90.20;;;;;;5074475;28;20028;-75
2021/01/25 08:03:10;;;;;;;33.07;18.07;;;0.40;90.20;;;;;;5041159;28;20127;-75
2021/01/25 08:05:38;;;;;;;38.73;18.93;;;0.40;90.20;;;;;;5074597;28;20060;-75
2021/01/25 08:08:07;;;;;;;34.17;19.57;;;0.40;90.20;;;;;;5080156;28;20036;-76
2021/01/25 08:10:35;;;;;;;37.77;19.13;;;0.40;90.20;;;;;;5084940;28;20786;-75
2021/01/25 08:13:17;;;;;;;33.40;18.80;;;0.40;90.30;;;;;;5075260;28;20464;-76
2021/01/25 08:15:58;;;;;;;32.03;18.03;;;0.40;90.30;;;;;;5074481;28;20500;-76
2021/01/25 08:18:35;;;;;;;30.17;17.70;;;0.40;90.40;;;;;;5075902;28;20357;-76
2021/01/25 08:21:02;;;;;;;38.00;20.60;;;0.40;90.40;;;;;;5074600;28;20067;-76
2021/01/25 08:23:32;;;;;;;35.73;19.60;;;0.40;90.40;;;;;;5074463;28;20528;-75
2021/01/25 08:26:00;;;;;;;33.70;18.20;;;0.50;90.40;;;;;;5058094;28;20036;-75
2021/01/25 08:28:29;;;;;;;32.83;18.43;;;0.50;90.40;;;;;;5075748;28;20365;-76
2021/01/25 08:31:08;;;;;;;36.23;18.33;;;0.50;90.40;;;;;;5074210;28;20029;-75
2021/01/25 08:33:36;;;;;;;31.10;17.77;;;0.60;90.50;;;;;;5075714;28;20396;-76
2021/01/25 08:36:05;;;;;;;37.00;18.27;;;0.60;90.50;;;;;;5075500;28;20032;-76
2021/01/25 08:38:32;;;;;;;32.47;17.70;;;0.60;90.60;;;;;;5073974;28;20028;-74
2021/01/25 08:41:00;;;;;;;31.47;17.63;;;0.70;90.50;;;;;;5075372;28;20055;-75
2021/01/25 08:43:32;;;;;;;32.07;18.23;;;0.70;90.50;;;;;;5074010;28;20028;-74
2021/01/25 08:46:11;;;;;;;33.30;18.93;;;0.70;90.50;;;;;;5074860;28;20049;-75
2021/01/25 08:48:37;;;;;;;31.77;17.87;;;0.80;90.50;;;;;;5073699;28;20031;-74
2021/01/25 08:51:16;;;;;;;34.27;17.97;;;0.80;90.50;;;;;;5075717;28;20036;-75
2021/01/25 08:53:44;;;;;;;36.33;18.80;;;0.80;90.50;;;;;;5075203;28;20039;-75
2021/01/25 08:56:18;;;;;;;35.10;19.07;;;0.90;90.50;;;;;;5075042;28;20115;-75
2021/01/25 08:58:44;;;;;;;33.40;17.73;;;0.90;90.50;;;;;;5077846;28;20086;-75
2021/01/25 09:01:22;;;;;;;35.17;19.93;;;1.00;90.50;;;;;;5073778;28;20098;-75
2021/01/25 09:03:48;;;;;;;34.30;18.97;;;1.00;90.60;;;;;;5093481;28;20099;-76
2021/01/25 09:06:14;;;;;;;31.27;18.27;;;1.10;90.60;;;;;;5093701;28;20555;-75
2021/01/25 09:08:40;;;;;;;33.87;18.40;;;1.10;90.60;;;;;;5070660;28;20021;-74
2021/01/25 09:11:06;;;;;;;35.50;19.90;;;1.20;90.60;;;;;;5077680;28;20017;-75
2021/01/25 09:13:32;;;;;;;32.23;17.70;;;1.20;90.60;;;;;;5074264;28;20452;-75
2021/01/25 09:15:59;;;;;;;28.63;17.33;;;1.30;90.70;;;;;;5063041;28;20031;-74
2021/01/25 09:18:24;;;;;;;36.90;19.63;;;1.30;90.60;;;;;;5074642;28;20028;-75
2021/01/25 09:20:50;;;;;;;35.90;19.73;;;1.40;90.60;;;;;;5072943;28;20395;-75
2021/01/25 09:23:18;;;;;;;33.87;19.40;;;1.40;90.60;;;;;;5074126;28;20104;-75
2021/01/25 09:25:45;;;;;;;35.77;20.87;;;1.40;90.50;;;;;;5073031;28;20021;-74
2021/01/25 09:28:11;;;;;;;36.17;19.93;;;1.50;90.50;;;;;;5074288;28;20021;-74
2021/01/25 09:30:37;;;;;;;37.40;19.57;;;1.60;90.50;;;;;;5072962;28;20359;-74
2021/01/25 09:33:03;;;;;;;36.33;19.67;;;1.60;90.50;;;;;;5056379;28;20074;-75
2021/01/25 09:35:28;;;;;;;35.87;20.37;;;1.70;90.50;;;;;;5074251;28;20024;-74
2021/01/25 09:37:54;;;;;;;36.00;20.17;;;1.70;90.50;;;;;;5088787;28;20473;-74
2021/01/25 09:40:20;;;;;;;31.37;19.80;;;1.70;90.80;;;;;;5089698;28;20032;-75
2021/01/25 09:42:45;;;;;;;36.20;19.20;;;1.80;90.60;;;;;;5078757;28;20058;-75
2021/01/25 09:45:15;;;;;;;33.83;20.50;;;1.90;90.70;;;;;;5093074;28;20039;-74
2021/01/25 09:47:41;;;;;;;35.80;19.20;;;2.10;90.80;;;;;;5092903;28;20535;-74
2021/01/25 09:50:10;;;;;;;34.10;19.23;;;2.20;90.80;;;;;;5092943;28;20074;-74
2021/01/25 09:52:40;;;;;;;33.03;18.67;;;2.50;90.90;;;;;;5093314;28;20437;-74
2021/01/25 09:55:07;;;;;;;32.87;17.90;;;2.80;91.10;;;;;;5091861;28;20069;-74
2021/01/25 09:57:32;;;;;;;35.13;16.90;;;3.10;91.30;;;;;;5066389;28;20028;-78
2021/01/25 09:59:58;;;;;;;25.57;16.20;;;3.50;91.60;;;;;;5081678;28;20033;-79
2021/01/25 10:02:24;;;;;;;25.00;15.70;;;4.10;92.00;;;;;;5084876;28;20102;-78
2021/01/25 10:04:49;;;;;;;23.13;14.03;;;4.60;92.40;;;;;;5092674;28;20073;-79
2021/01/25 10:07:15;;;;;;;18.93;12.30;;;5.40;92.70;;;;;;5073930;28;20082;-79
2021/01/25 10:09:41;;;;;;;18.17;11.63;;;6.10;92.90;;;;;;5071943;28;20075;-79
2021/01/25 10:12:07;;;;;;;18.07;11.33;;;7.00;92.80;;;;;;5055586;28;20023;-79
2021/01/25 10:14:32;;;;;;;18.80;11.03;;;7.80;92.60;;;;;;5073037;28;20059;-79
2021/01/25 10:16:58;;;;;;;13.98;8.90;;;8.70;92.40;;;;;;5072196;28;20056;-79
2021/01/25 10:19:24;;;;;;;14.45;9.25;;;9.50;91.60;;;;;;5072419;28;20098;-80
2021/01/25 10:21:50;;;;;;;15.63;9.25;;;10.20;90.60;;;;;;5073427;28;20508;-80
2021/01/25 10:24:16;;;;;;;18.08;9.90;;;10.90;89.90;;;;;;5072174;28;20027;-80
2021/01/25 10:26:41;;;;;;;16.08;9.50;;;11.60;87.90;;;;;;5072086;28;20081;-80
2021/01/25 10:29:07;;;;;;;14.45;9.75;;;12.40;85.40;;;;;;5085693;28;20043;-80
2021/01/25 10:31:33;;;;;;;13.10;9.27;;;12.90;82.60;;;;;;5086604;28;20035;-80
2021/01/25 10:33:58;;;;;;;13.65;9.35;;;13.60;79.00;;;;;;5092267;28;20110;-80
2021/01/25 10:36:24;;;;;;;15.10;9.60;;;14.10;75.40;;;;;;5092121;28;20032;-81
2021/01/25 10:38:49;;;;;;;12.32;7.78;;;14.60;72.10;;;;;;5075212;28;20032;-80
2021/01/25 10:41:15;;;;;;;13.90;8.65;;;14.90;68.90;;;;;;5075433;28;20028;-80
2021/01/25 10:43:42;;;;;;;13.20;8.40;;;15.20;66.80;;;;;;5092224;28;20031;-80
2021/01/25 10:46:07;;;;;;;13.13;8.52;;;15.50;64.40;;;;;;5093279;28;20044;-80
2021/01/25 10:48:33;;;;;;;13.70;9.20;;;15.60;62.40;;;;;;5093574;28;20030;-80
2021/01/25 10:50:58;;;;;;;12.23;8.40;;;15.70;60.60;;;;;;5093646;28;20039;-80
2021/01/25 10:53:24;;;;;;;12.98;8.02;;;15.90;59.10;;;;;;5086233;28;20028;-80
2021/01/25 10:55:50;;;;;;;12.50;8.25;;;15.90;59.10;;;;;;5082968;28;20100;-80
2021/01/25 10:58:15;;;;;;;15.18;8.77;;;15.80;58.00;;;;;;5078882;28;20040;-80
2021/01/25 11:00:41;;;;;;;11.23;7.95;;;15.90;57.10;;;;;;5072847;28;20028;-80
2021/01/25 11:03:07;;;;;;;11.48;7.80;;;16.00;56.00;;;;;;5080456;28;20181;-80
2021/01/25 11:05:34;;;;;;;10.93;7.57;;;16.10;55.00;;;;;;5081530;28;20039;-80
2021/01/25 11:08:00;;;;;;;10.73;7.07;;;16.20;54.60;;;;;;5085280;28;20480;-80
2021/01/25 11:10:27;;;;;;;11.48;6.85;;;16.50;53.90;;;;;;5068042;28;20032;-80
2021/01/25 11:12:54;;;;;;;10.93;6.88;;;16.70;53.60;;;;;;5079138;28;20021;-80
2021/01/25 11:15:20;;;;;;;11.93;6.82;;;16.70;53.20;;;;;;5063889;28;20476;-80
2021/01/25 11:17:46;;;;;;;11.25;6.32;;;17.00;52.00;;;;;;5077777;28;20543;-79
2021/01/25 11:20:13;;;;;;;10.00;6.38;;;17.30;51.10;;;;;;5094077;28;20075;-80
2021/01/25 11:22:38;;;;;;;13.88;8.25;;;17.50;50.00;;;;;;5096790;28;20077;-80
2021/01/25 11:25:05;;;;;;;12.40;7.85;;;17.70;48.50;;;;;;5096804;28;20032;-80
2021/01/25 11:27:30;;;;;;;14.38;8.55;;;17.70;47.80;;;;;;5095167;28;20110;-80
2021/01/25 11:29:56;;;;;;;11.95;8.45;;;17.70;47.20;;;;;;5078670;28;20047;-80
2021/01/25 11:32:22;;;;;;;12.43;8.00;;;17.70;47.00;;;;;;5095544;28;20540;-80
2021/01/25 11:34:47;;;;;;;13.23;8.50;;;17.60;47.10;;;;;;5095458;28;20069;-80
2021/01/25 11:37:13;;;;;;;11.75;7.53;;;17.70;47.00;;;;;;5095492;28;20028;-80
2021/01/25 11:39:41;;;;;;;12.00;7.63;;;17.80;47.30;;;;;;5096683;28;20070;-75
2021/01/25 11:42:07;;;;;;;13.23;9.07;;;17.90;46.60;;;;;;5096739;28;20024;-76
2021/01/25 11:44:32;;;;;;;15.80;8.57;;;17.80;46.30;;;;;;5078216;28;20028;-76
2021/01/25 11:46:58;;;;;;;15.25;9.20;;;17.80;46.40;;;;;;5078421;28;20051;-76
2021/01/25 11:49:24;;;;;;;14.52;8.25;;;17.70;46.10;;;;;;5096501;28;20024;-76
2021/01/25 11:51:49;;;;;;;10.60;6.18;;;17.70;45.50;;;;;;5078500;28;20422;-75
2021/01/25 11:54:15;;;;;;;8.48;5.68;;;17.70;43.90;;;;;;5090315;28;20131;-75
2021/01/25 11:56:41;;;;;;;10.65;6.00;;;17.40;43.40;;;;;;5078201;28;20028;-75
2021/01/25 11:59:06;;;;;;;9.43;5.93;;;17.20;43.50;;;;;;5083164;28;20349;-76
2021/01/25 12:01:32;;;;;;;10.43;6.50;;;17.10;43.20;;;;;;5075067;28;20032;-75
2021/01/25 12:03:58;;;;;;;10.50;5.60;;;17.10;43.30;;;;;;5074836;28;20033;-75
2021/01/25 12:06:23;;;;;;;11.30;6.25;;;17.10;42.80;;;;;;5084197;28;20082;-75
2021/01/25 12:08:49;;;;;;;9.25;5.55;;;17.10;42.40;;;;;;5077186;28;20021;-75
2021/01/25 12:11:15;;;;;;;9.60;5.60;;;17.10;41.90;;;;;;5086387;28;20039;-75
2021/01/25 12:13:40;;;;;;;8.48;5.20;;;17.20;41.80;;;;;;5088530;28;20043;-76
2021/01/25 12:16:07;;;;;;;7.45;4.05;;;17.40;41.80;;;;;;5080942;28;20056;-75
2021/01/25 12:18:33;;;;;;;6.80;4.50;;;17.80;41.50;;;;;;5077719;28;20041;-75
2021/01/25 12:20:59;;;;;;;8.73;4.93;;;17.90;40.70;;;;;;5084849;28;20032;-75
2021/01/25 12:23:25;;;;;;;7.60;4.22;;;18.10;40.80;;;;;;5075948;28;20112;-75
2021/01/25 12:25:51;;;;;;;6.35;3.72;;;18.40;41.00;;;;;;5074733;28;20107;-75
2021/01/25 12:28:17;;;;;;;6.13;3.55;;;18.60;40.40;;;;;;5075909;28;20417;-75
2021/01/25 12:30:43;;;;;;;6.63;3.75;;;18.70;40.50;;;;;;5057670;28;20090;-75
2021/01/25 12:33:09;;;;;;;5.32;3.05;;;18.90;39.90;;;;;;5075723;28;20020;-76
2021/01/25 12:35:34;;;;;;;5.88;2.85;;;19.10;39.40;;;;;;5074198;28;20033;-73
2021/01/25 12:38:00;;;;;;;5.63;2.72;;;19.20;39.10;;;;;;5057855;28;20031;-75